sensor_id;sensor_type;location;lat;lon;timestamp;pressure;altitude;pressure_sealevel;temperature;humidity
22653;BME280;11493;43.344;26.226;2024-02-23T00:02:19;99030.84;;;3.48;100.00
22653;BME280;11493;43.344;26.226;2024-02-23T00:04:46;99097.16;;;3.77;100.00
22653;BME280;11493;43.344;26.226;2024-02-23T00:07:13;99044.44;;;3.58;100.00
22653;BME280;11493;43.344;26.226;2024-02-23T00:09:40;99053.13;;;3.60;100.00
22653;BME280;11493;43.344;26.226;2024-02-23T00:12:07;99049.34;;;3.56;100.00
22653;BME280;11493;43.344;26.226;2024-02-23T00:14:35;99060.47;;;3.65;100.00
22653;BME280;11493;43.344;26.226;2024-02-23T00:17:05;99073.47;;;3.73;100.00
22653;BME280;11493;43.344;26.226;2024-02-23T00:19:33;99071.84;;;3.77;100.00
22653;BME280;11493;43.344;26.226;2024-02-23T00:22:00;99043.34;;;3.54;100.00
22653;BME280;11493;43.344;26.226;2024-02-23T00:24:27;99058.03;;;3.63;100.00
22653;BME280;11493;43.344;26.226;2024-02-23T00:26:54;98972.25;;;2.96;100.00
22653;BME280;11493;43.344;26.226;2024-02-23T00:29:21;99016.75;;;3.30;100.00
22653;BME280;11493;43.344;26.226;2024-02-23T00:31:49;99047.69;;;3.60;100.00
22653;BME280;11493;43.344;26.226;2024-02-23T00:34:16;99056.41;;;3.62;100.00
22653;BME280;11493;43.344;26.226;2024-02-23T00:36:43;99047.16;;;3.58;100.00
22653;BME280;11493;43.344;26.226;2024-02-23T00:39:11;99036.28;;;3.58;100.00
22653;BME280;11493;43.344;26.226;2024-02-23T00:41:38;99040.34;;;3.60;100.00
22653;BME280;11493;43.344;26.226;2024-02-23T00:44:06;99024.06;;;3.50;100.00
22653;BME280;11493;43.344;26.226;2024-02-23T00:46:33;99053.13;;;3.65;100.00
22653;BME280;11493;43.344;26.226;2024-02-23T00:49:01;99030.84;;;3.53;100.00
22653;BME280;11493;43.344;26.226;2024-02-23T00:51:29;99034.09;;;3.60;100.00
22653;BME280;11493;43.344;26.226;2024-02-23T00:53:56;98996.63;;;3.37;100.00
22653;BME280;11493;43.344;26.226;2024-02-23T00:56:23;99006.94;;;3.45;100.00
22653;BME280;11493;43.344;26.226;2024-02-23T00:59:01;99016.72;;;3.51;100.00
22653;BME280;11493;43.344;26.226;2024-02-23T01:01:28;99036.81;;;3.65;100.00
22653;BME280;11493;43.344;26.226;2024-02-23T01:03:55;99037.91;;;3.64;100.00
22653;BME280;11493;43.344;26.226;2024-02-23T01:06:23;98949.63;;;3.16;100.00
22653;BME280;11493;43.344;26.226;2024-02-23T01:08:51;98938.25;;;2.98;100.00
22653;BME280;11493;43.344;26.226;2024-02-23T01:11:18;99015.91;;;3.50;100.00
22653;BME280;11493;43.344;26.226;2024-02-23T01:13:45;99021.31;;;3.60;100.00
22653;BME280;11493;43.344;26.226;2024-02-23T01:16:12;99004.19;;;3.50;100.00
22653;BME280;11493;43.344;26.226;2024-02-23T01:18:39;98984.94;;;3.31;100.00
22653;BME280;11493;43.344;26.226;2024-02-23T01:21:07;99009.09;;;3.53;100.00
22653;BME280;11493;43.344;26.226;2024-02-23T01:23:34;98984.09;;;3.41;100.00
22653;BME280;11493;43.344;26.226;2024-02-23T01:26:01;99003.38;;;3.49;100.00
22653;BME280;11493;43.344;26.226;2024-02-23T01:28:29;98997.44;;;3.37;100.00
22653;BME280;11493;43.344;26.226;2024-02-23T01:30:56;98947.19;;;3.04;100.00
22653;BME280;11493;43.344;26.226;2024-02-23T01:33:23;99004.25;;;3.35;100.00
22653;BME280;11493;43.344;26.226;2024-02-23T01:35:51;98998.81;;;3.29;100.00
22653;BME280;11493;43.344;26.226;2024-02-23T01:38:18;98977.91;;;3.10;100.00
22653;BME280;11493;43.344;26.226;2024-02-23T01:40:49;98944.25;;;2.90;100.00
22653;BME280;11493;43.344;26.226;2024-02-23T01:43:16;98948.63;;;2.91;100.00
22653;BME280;11493;43.344;26.226;2024-02-23T01:45:43;98951.06;;;2.93;100.00
22653;BME280;11493;43.344;26.226;2024-02-23T01:48:10;98982.53;;;3.14;100.00
22653;BME280;11493;43.344;26.226;2024-02-23T01:50:38;98994.75;;;3.17;100.00
22653;BME280;11493;43.344;26.226;2024-02-23T01:53:05;98974.41;;;2.94;100.00
22653;BME280;11493;43.344;26.226;2024-02-23T01:55:32;98988.22;;;3.13;100.00
22653;BME280;11493;43.344;26.226;2024-02-23T01:58:04;98986.88;;;3.10;100.00
22653;BME280;11493;43.344;26.226;2024-02-23T02:00:35;98975.47;;;2.98;100.00
22653;BME280;11493;43.344;26.226;2024-02-23T02:03:04;99003.72;;;3.17;100.00
22653;BME280;11493;43.344;26.226;2024-02-23T02:05:37;98989.59;;;3.20;100.00
22653;BME280;11493;43.344;26.226;2024-02-23T02:08:05;98968.13;;;2.98;100.00
22653;BME280;11493;43.344;26.226;2024-02-23T02:10:32;98973.84;;;3.07;100.00
22653;BME280;11493;43.344;26.226;2024-02-23T02:13:03;98992.84;;;3.12;100.00
22653;BME280;11493;43.344;26.226;2024-02-23T02:15:31;99000.19;;;3.17;100.00
22653;BME280;11493;43.344;26.226;2024-02-23T02:17:58;98978.19;;;3.03;100.00
22653;BME280;11493;43.344;26.226;2024-02-23T02:20:25;98998.28;;;3.12;100.00
22653;BME280;11493;43.344;26.226;2024-02-23T02:22:54;99001.28;;;3.01;100.00
22653;BME280;11493;43.344;26.226;2024-02-23T02:25:21;99016.25;;;3.03;100.00
22653;BME280;11493;43.344;26.226;2024-02-23T02:27:49;98985.84;;;2.91;100.00
22653;BME280;11493;43.344;26.226;2024-02-23T02:30:16;99017.84;;;3.14;100.00
22653;BME280;11493;43.344;26.226;2024-02-23T02:32:43;99012.69;;;3.18;100.00
22653;BME280;11493;43.344;26.226;2024-02-23T02:35:10;98981.22;;;2.91;100.00
22653;BME280;11493;43.344;26.226;2024-02-23T02:37:38;99014.88;;;3.16;100.00
22653;BME280;11493;43.344;26.226;2024-02-23T02:40:06;98993.94;;;3.06;100.00
22653;BME280;11493;43.344;26.226;2024-02-23T02:42:33;98907.63;;;2.42;100.00
22653;BME280;11493;43.344;26.226;2024-02-23T02:45:01;99004.00;;;3.06;100.00
22653;BME280;11493;43.344;26.226;2024-02-23T02:47:29;99012.16;;;3.06;100.00
22653;BME280;11493;43.344;26.226;2024-02-23T02:49:56;98970.63;;;2.85;100.00
22653;BME280;11493;43.344;26.226;2024-02-23T02:52:23;99000.19;;;3.07;100.00
22653;BME280;11493;43.344;26.226;2024-02-23T02:54:50;98976.59;;;2.92;100.00
22653;BME280;11493;43.344;26.226;2024-02-23T02:57:18;98961.94;;;2.88;100.00
22653;BME280;11493;43.344;26.226;2024-02-23T02:59:45;99013.50;;;3.18;100.00
22653;BME280;11493;43.344;26.226;2024-02-23T03:02:13;99013.50;;;3.23;100.00
22653;BME280;11493;43.344;26.226;2024-02-23T03:04:50;99018.38;;;3.32;100.00
22653;BME280;11493;43.344;26.226;2024-02-23T03:07:17;98989.31;;;3.22;100.00
22653;BME280;11493;43.344;26.226;2024-02-23T03:09:44;99019.47;;;3.36;100.00
22653;BME280;11493;43.344;26.226;2024-02-23T03:12:11;98999.34;;;3.32;100.00
22653;BME280;11493;43.344;26.226;2024-02-23T03:14:38;98987.38;;;3.33;100.00
22653;BME280;11493;43.344;26.226;2024-02-23T03:17:07;98997.69;;;3.41;100.00
22653;BME280;11493;43.344;26.226;2024-02-23T03:19:37;99004.25;;;3.35;100.00
22653;BME280;11493;43.344;26.226;2024-02-23T03:22:05;98970.81;;;3.29;100.00
22653;BME280;11493;43.344;26.226;2024-02-23T03:24:32;98997.16;;;3.44;100.00
22653;BME280;11493;43.344;26.226;2024-02-23T03:26:59;99014.00;;;3.51;100.00
22653;BME280;11493;43.344;26.226;2024-02-23T03:29:27;98993.88;;;3.47;100.00
22653;BME280;11493;43.344;26.226;2024-02-23T03:31:57;98975.41;;;3.39;100.00
22653;BME280;11493;43.344;26.226;2024-02-23T03:34:25;99013.44;;;3.54;100.00
22653;BME280;11493;43.344;26.226;2024-02-23T03:36:52;98966.72;;;3.32;100.00
22653;BME280;11493;43.344;26.226;2024-02-23T03:39:19;99005.25;;;3.64;100.00
22653;BME280;11493;43.344;26.226;2024-02-23T03:41:46;98948.78;;;3.30;100.00
22653;BME280;11493;43.344;26.226;2024-02-23T03:44:13;99005.00;;;3.60;100.00
22653;BME280;11493;43.344;26.226;2024-02-23T03:46:40;99008.25;;;3.57;100.00
22653;BME280;11493;43.344;26.226;2024-02-23T03:49:07;99006.91;;;3.60;100.00
22653;BME280;11493;43.344;26.226;2024-02-23T03:51:35;99002.28;;;3.55;100.00
22653;BME280;11493;43.344;26.226;2024-02-23T03:54:03;98972.41;;;3.40;100.00
22653;BME280;11493;43.344;26.226;2024-02-23T03:56:37;99000.94;;;3.53;100.00
22653;BME280;11493;43.344;26.226;2024-02-23T03:59:05;98988.97;;;3.54;100.00
22653;BME280;11493;43.344;26.226;2024-02-23T04:01:32;98954.50;;;3.19;100.00
22653;BME280;11493;43.344;26.226;2024-02-23T04:03:59;99005.00;;;3.50;100.00
22653;BME280;11493;43.344;26.226;2024-02-23T04:06:29;98947.16;;;3.19;100.00
22653;BME280;11493;43.344;26.226;2024-02-23T04:08:56;99000.66;;;3.54;100.00
22653;BME280;11493;43.344;26.226;2024-02-23T04:11:23;98984.09;;;3.41;100.00
22653;BME280;11493;43.344;26.226;2024-02-23T04:13:50;99006.91;;;3.55;100.00
22653;BME280;11493;43.344;26.226;2024-02-23T04:16:22;99001.47;;;3.50;100.00
22653;BME280;11493;43.344;26.226;2024-02-23T04:18:50;98989.00;;;3.39;100.00
22653;BME280;11493;43.344;26.226;2024-02-23T04:21:18;98978.13;;;3.34;100.00
22653;BME280;11493;43.344;26.226;2024-02-23T04:23:45;98989.28;;;3.37;100.00
22653;BME280;11493;43.344;26.226;2024-02-23T04:26:12;98990.63;;;3.35;100.00
22653;BME280;11493;43.344;26.226;2024-02-23T04:28:40;99000.16;;;3.37;100.00
22653;BME280;11493;43.344;26.226;2024-02-23T04:31:08;99004.22;;;3.45;100.00
22653;BME280;11493;43.344;26.226;2024-02-23T04:33:37;98975.16;;;3.25;100.00
22653;BME280;11493;43.344;26.226;2024-02-23T04:36:05;99002.59;;;3.39;100.00
22653;BME280;11493;43.344;26.226;2024-02-23T04:38:33;98917.38;;;2.74;100.00
22653;BME280;11493;43.344;26.226;2024-02-23T04:41:04;99009.41;;;3.36;100.00
22653;BME280;11493;43.344;26.226;2024-02-23T04:43:34;98997.72;;;3.25;100.00
22653;BME280;11493;43.344;26.226;2024-02-23T04:46:01;99017.03;;;3.24;100.00
22653;BME280;11493;43.344;26.226;2024-02-23T04:48:28;98985.78;;;3.06;100.00
22653;BME280;11493;43.344;26.226;2024-02-23T04:50:57;98999.66;;;3.05;100.00
22653;BME280;11493;43.344;26.226;2024-02-23T04:53:25;98996.16;;;2.94;100.00
22653;BME280;11493;43.344;26.226;2024-02-23T04:55:52;98988.84;;;2.84;100.00
22653;BME280;11493;43.344;26.226;2024-02-23T04:58:19;99016.25;;;3.03;100.00
22653;BME280;11493;43.344;26.226;2024-02-23T05:00:47;99017.59;;;3.01;100.00
22653;BME280;11493;43.344;26.226;2024-02-23T05:03:14;99013.00;;;2.91;100.00
22653;BME280;11493;43.344;26.226;2024-02-23T05:05:43;98972.25;;;2.55;100.00
22653;BME280;11493;43.344;26.226;2024-02-23T05:08:10;99022.25;;;2.80;100.00
22653;BME280;11493;43.344;26.226;2024-02-23T05:10:39;98988.28;;;2.62;100.00
22653;BME280;11493;43.344;26.226;2024-02-23T05:13:09;99036.09;;;2.88;100.00
22653;BME280;11493;43.344;26.226;2024-02-23T05:15:36;98989.38;;;2.66;100.00
22653;BME280;11493;43.344;26.226;2024-02-23T05:18:06;99019.00;;;2.78;100.00
22653;BME280;11493;43.344;26.226;2024-02-23T05:20:33;99021.16;;;2.76;100.00
22653;BME280;11493;43.344;26.226;2024-02-23T05:23:01;99021.44;;;2.84;100.00
22653;BME280;11493;43.344;26.226;2024-02-23T05:25:30;99016.00;;;2.79;100.00
22653;BME280;11493;43.344;26.226;2024-02-23T05:27:57;99001.06;;;2.72;100.00
22653;BME280;11493;43.344;26.226;2024-02-23T05:30:24;99032.56;;;2.93;100.00
22653;BME280;11493;43.344;26.226;2024-02-23T05:32:56;98995.63;;;2.61;100.00
22653;BME280;11493;43.344;26.226;2024-02-23T05:35:24;99016.81;;;2.85;100.00
22653;BME280;11493;43.344;26.226;2024-02-23T05:37:51;99033.13;;;2.90;100.00
22653;BME280;11493;43.344;26.226;2024-02-23T05:40:19;99051.56;;;2.98;100.00
22653;BME280;11493;43.344;26.226;2024-02-23T05:42:50;99042.38;;;2.94;100.00
22653;BME280;11493;43.344;26.226;2024-02-23T05:45:17;99041.78;;;3.02;100.00
22653;BME280;11493;43.344;26.226;2024-02-23T05:47:44;99004.59;;;2.87;100.00
22653;BME280;11493;43.344;26.226;2024-02-23T05:50:14;99046.13;;;3.18;100.00
22653;BME280;11493;43.344;26.226;2024-02-23T05:52:41;98925.53;;;2.48;100.00
22653;BME280;11493;43.344;26.226;2024-02-23T05:55:09;99018.41;;;3.11;100.00
22653;BME280;11493;43.344;26.226;2024-02-23T05:57:36;99002.38;;;3.00;100.00
22653;BME280;11493;43.344;26.226;2024-02-23T06:00:04;99046.13;;;3.28;100.00
22653;BME280;11493;43.344;26.226;2024-02-23T06:02:37;99019.47;;;3.20;100.00
22653;BME280;11493;43.344;26.226;2024-02-23T06:05:05;99053.19;;;3.29;100.00
22653;BME280;11493;43.344;26.226;2024-02-23T06:07:35;99037.41;;;3.32;100.00
22653;BME280;11493;43.344;26.226;2024-02-23T06:10:05;99060.50;;;3.44;100.00
22653;BME280;11493;43.344;26.226;2024-02-23T06:12:32;99057.50;;;3.56;100.00
22653;BME280;11493;43.344;26.226;2024-02-23T06:14:59;99045.00;;;3.55;100.00
22653;BME280;11493;43.344;26.226;2024-02-23T06:17:26;99025.94;;;3.55;100.00
22653;BME280;11493;43.344;26.226;2024-02-23T06:19:54;99035.69;;;3.71;100.00
22653;BME280;11493;43.344;26.226;2024-02-23T06:22:26;99016.66;;;3.71;100.00
22653;BME280;11493;43.344;26.226;2024-02-23T06:24:54;99056.50;;;4.06;100.00
22653;BME280;11493;43.344;26.226;2024-02-23T06:27:21;99069.78;;;4.18;100.00
22653;BME280;11493;43.344;26.226;2024-02-23T06:29:49;99058.66;;;4.14;100.00
22653;BME280;11493;43.344;26.226;2024-02-23T06:32:16;99022.47;;;4.09;100.00
22653;BME280;11493;43.344;26.226;2024-02-23T06:34:46;99074.72;;;4.60;100.00
22653;BME280;11493;43.344;26.226;2024-02-23T06:37:14;99072.19;;;4.74;100.00
22653;BME280;11493;43.344;26.226;2024-02-23T06:39:41;99069.84;;;4.96;100.00
22653;BME280;11493;43.344;26.226;2024-02-23T06:42:08;99079.31;;;5.09;100.00
22653;BME280;11493;43.344;26.226;2024-02-23T06:44:36;99029.00;;;4.91;100.00
22653;BME280;11493;43.344;26.226;2024-02-23T06:47:03;99076.00;;;5.41;100.00
22653;BME280;11493;43.344;26.226;2024-02-23T06:49:33;99051.44;;;5.41;100.00
22653;BME280;11493;43.344;26.226;2024-02-23T06:52:00;99041.19;;;5.56;100.00
22653;BME280;11493;43.344;26.226;2024-02-23T06:54:27;99055.16;;;5.79;100.00
22653;BME280;11493;43.344;26.226;2024-02-23T06:56:58;99055.50;;;5.96;100.00
22653;BME280;11493;43.344;26.226;2024-02-23T06:59:31;99084.22;;;6.17;100.00
22653;BME280;11493;43.344;26.226;2024-02-23T07:01:59;99073.97;;;6.28;100.00
22653;BME280;11493;43.344;26.226;2024-02-23T07:04:26;98981.88;;;5.91;100.00
22653;BME280;11493;43.344;26.226;2024-02-23T07:06:58;99078.09;;;6.68;100.00
22653;BME280;11493;43.344;26.226;2024-02-23T07:09:25;99031.16;;;6.61;100.00
22653;BME280;11493;43.344;26.226;2024-02-23T07:11:55;99075.81;;;7.08;100.00
22653;BME280;11493;43.344;26.226;2024-02-23T07:14:25;98970.72;;;6.63;100.00
22653;BME280;11493;43.344;26.226;2024-02-23T07:16:52;99050.56;;;7.30;100.00
22653;BME280;11493;43.344;26.226;2024-02-23T07:19:19;99032.94;;;7.36;100.00
22653;BME280;11493;43.344;26.226;2024-02-23T07:21:47;98942.97;;;7.02;99.73
22653;BME280;11493;43.344;26.226;2024-02-23T07:24:14;99061.22;;;8.05;98.01
22653;BME280;11493;43.344;26.226;2024-02-23T07:26:42;99047.72;;;8.08;97.46
22653;BME280;11493;43.344;26.226;2024-02-23T07:29:09;99058.66;;;8.36;96.63
22653;BME280;11493;43.344;26.226;2024-02-23T07:31:36;99057.31;;;8.47;96.15
22653;BME280;11493;43.344;26.226;2024-02-23T07:34:03;99069.03;;;8.75;95.14
22653;BME280;11493;43.344;26.226;2024-02-23T07:36:30;99058.03;;;8.88;93.18
22653;BME280;11493;43.344;26.226;2024-02-23T07:38:58;99078.25;;;9.15;93.42
22653;BME280;11493;43.344;26.226;2024-02-23T07:41:25;99034.75;;;9.08;92.92
22653;BME280;11493;43.344;26.226;2024-02-23T07:43:53;99073.31;;;9.48;93.06
22653;BME280;11493;43.344;26.226;2024-02-23T07:46:20;99066.63;;;9.63;93.23
22653;BME280;11493;43.344;26.226;2024-02-23T07:48:56;99047.06;;;9.64;93.66
22653;BME280;11493;43.344;26.226;2024-02-23T07:51:23;99018.94;;;9.67;93.63
22653;BME280;11493;43.344;26.226;2024-02-23T07:53:50;99056.94;;;10.05;93.71
22653;BME280;11493;43.344;26.226;2024-02-23T07:56:17;99071.44;;;10.45;91.98
22653;BME280;11493;43.344;26.226;2024-02-23T07:58:45;99040.41;;;10.36;91.75
22653;BME280;11493;43.344;26.226;2024-02-23T08:01:14;99046.38;;;10.55;90.96
22653;BME280;11493;43.344;26.226;2024-02-23T08:03:44;99074.44;;;10.92;90.06
22653;BME280;11493;43.344;26.226;2024-02-23T08:06:11;99055.19;;;11.00;88.36
22653;BME280;11493;43.344;26.226;2024-02-23T08:08:40;99046.75;;;11.05;87.80
22653;BME280;11493;43.344;26.226;2024-02-23T08:11:07;99064.84;;;11.32;86.03
22653;BME280;11493;43.344;26.226;2024-02-23T08:13:35;98990.09;;;10.96;85.12
22653;BME280;11493;43.344;26.226;2024-02-23T08:16:02;99004.13;;;11.20;82.87
22653;BME280;11493;43.344;26.226;2024-02-23T08:18:30;99043.56;;;11.67;82.36
22653;BME280;11493;43.344;26.226;2024-02-23T08:20:58;99048.56;;;11.82;80.70
22653;BME280;11493;43.344;26.226;2024-02-23T08:23:25;99037.94;;;11.93;79.61
22653;BME280;11493;43.344;26.226;2024-02-23T08:25:53;99062.94;;;12.26;77.62
22653;BME280;11493;43.344;26.226;2024-02-23T08:28:20;99054.50;;;12.31;76.33
22653;BME280;11493;43.344;26.226;2024-02-23T08:30:48;99016.53;;;12.28;75.57
22653;BME280;11493;43.344;26.226;2024-02-23T08:33:15;99055.88;;;12.67;73.67
22653;BME280;11493;43.344;26.226;2024-02-23T08:35:42;99054.72;;;12.68;72.73
22653;BME280;11493;43.344;26.226;2024-02-23T08:38:12;99069.69;;;12.88;71.42
22653;BME280;11493;43.344;26.226;2024-02-23T08:40:39;99058.13;;;12.94;71.38
22653;BME280;11493;43.344;26.226;2024-02-23T08:43:07;99049.75;;;13.03;70.58
22653;BME280;11493;43.344;26.226;2024-02-23T08:45:34;99059.69;;;13.25;70.14
22653;BME280;11493;43.344;26.226;2024-02-23T08:48:01;99059.03;;;13.40;68.49
22653;BME280;11493;43.344;26.226;2024-02-23T08:50:31;99063.09;;;13.55;67.83
22653;BME280;11493;43.344;26.226;2024-02-23T08:52:58;99070.41;;;13.71;67.96
22653;BME280;11493;43.344;26.226;2024-02-23T08:55:25;99038.72;;;13.69;66.90
22653;BME280;11493;43.344;26.226;2024-02-23T08:57:55;99071.41;;;14.00;65.98
22653;BME280;11493;43.344;26.226;2024-02-23T09:00:22;99054.47;;;14.01;66.05
22653;BME280;11493;43.344;26.226;2024-02-23T09:02:51;99055.72;;;14.16;63.80
22653;BME280;11493;43.344;26.226;2024-02-23T09:05:18;99048.34;;;14.32;61.60
22653;BME280;11493;43.344;26.226;2024-02-23T09:07:49;99058.47;;;14.40;61.36
22653;BME280;11493;43.344;26.226;2024-02-23T09:10:16;99036.56;;;14.35;60.25
22653;BME280;11493;43.344;26.226;2024-02-23T09:12:50;99056.53;;;14.65;58.98
22653;BME280;11493;43.344;26.226;2024-02-23T09:15:17;99053.63;;;14.74;59.16
22653;BME280;11493;43.344;26.226;2024-02-23T09:17:44;99035.53;;;14.64;58.28
22653;BME280;11493;43.344;26.226;2024-02-23T09:20:11;99057.28;;;14.90;57.30
22653;BME280;11493;43.344;26.226;2024-02-23T09:22:39;99030.28;;;14.87;57.10
22653;BME280;11493;43.344;26.226;2024-02-23T09:25:07;99059.97;;;15.15;56.20
22653;BME280;11493;43.344;26.226;2024-02-23T09:27:35;99042.09;;;15.12;56.18
22653;BME280;11493;43.344;26.226;2024-02-23T09:30:06;98978.31;;;14.68;55.12
22653;BME280;11493;43.344;26.226;2024-02-23T09:32:33;99038.91;;;15.26;55.07
22653;BME280;11493;43.344;26.226;2024-02-23T09:35:01;98939.94;;;14.83;53.36
22653;BME280;11493;43.344;26.226;2024-02-23T09:37:28;99049.19;;;15.53;52.62
22653;BME280;11493;43.344;26.226;2024-02-23T09:39:55;99038.56;;;15.55;52.68
22653;BME280;11493;43.344;26.226;2024-02-23T09:42:23;99035.97;;;15.62;52.31
22653;BME280;11493;43.344;26.226;2024-02-23T09:45:00;99048.16;;;15.73;48.45
22653;BME280;11493;43.344;26.226;2024-02-23T09:47:28;99017.47;;;15.66;46.17
22653;BME280;11493;43.344;26.226;2024-02-23T09:49:56;99020.09;;;15.59;45.67
22653;BME280;11493;43.344;26.226;2024-02-23T09:52:23;99034.75;;;15.75;46.06
22653;BME280;11493;43.344;26.226;2024-02-23T09:54:51;99032.97;;;15.83;46.12
22653;BME280;11493;43.344;26.226;2024-02-23T09:57:19;99026.00;;;15.89;46.33
22653;BME280;11493;43.344;26.226;2024-02-23T09:59:48;98972.19;;;15.62;47.03
22653;BME280;11493;43.344;26.226;2024-02-23T10:02:16;99020.00;;;16.03;46.69
22653;BME280;11493;43.344;26.226;2024-02-23T10:04:44;99013.56;;;15.99;46.99
22653;BME280;11493;43.344;26.226;2024-02-23T10:07:14;99002.91;;;16.01;46.96
22653;BME280;11493;43.344;26.226;2024-02-23T10:09:45;99000.75;;;16.10;47.13
22653;BME280;11493;43.344;26.226;2024-02-23T10:12:13;99015.25;;;16.03;46.53
22653;BME280;11493;43.344;26.226;2024-02-23T10:14:41;99012.47;;;16.19;45.71
22653;BME280;11493;43.344;26.226;2024-02-23T10:17:27;99021.06;;;16.14;46.06
22653;BME280;11493;43.344;26.226;2024-02-23T10:19:57;99014.63;;;16.26;45.95
22653;BME280;11493;43.344;26.226;2024-02-23T10:22:31;98991.72;;;16.13;45.77
22653;BME280;11493;43.344;26.226;2024-02-23T10:24:59;98984.00;;;16.22;45.89
22653;BME280;11493;43.344;26.226;2024-02-23T10:27:27;99007.56;;;16.48;45.17
22653;BME280;11493;43.344;26.226;2024-02-23T10:29:55;99011.78;;;16.41;45.22
22653;BME280;11493;43.344;26.226;2024-02-23T10:32:23;98993.66;;;16.28;44.96
22653;BME280;11493;43.344;26.226;2024-02-23T10:34:52;98994.97;;;16.34;45.28
22653;BME280;11493;43.344;26.226;2024-02-23T10:37:21;99003.91;;;16.43;45.07
22653;BME280;11493;43.344;26.226;2024-02-23T10:39:53;98990.00;;;16.43;44.78
22653;BME280;11493;43.344;26.226;2024-02-23T10:42:23;98956.91;;;16.35;45.04
22653;BME280;11493;43.344;26.226;2024-02-23T10:44:52;98989.97;;;16.59;44.86
22653;BME280;11493;43.344;26.226;2024-02-23T10:47:24;98936.59;;;16.31;44.56
22653;BME280;11493;43.344;26.226;2024-02-23T10:49:52;98976.06;;;16.75;44.63
22653;BME280;11493;43.344;26.226;2024-02-23T10:52:22;98982.66;;;16.86;45.18
22653;BME280;11493;43.344;26.226;2024-02-23T10:54:51;98977.41;;;16.81;45.07
22653;BME280;11493;43.344;26.226;2024-02-23T10:57:24;98980.16;;;16.81;44.82
22653;BME280;11493;43.344;26.226;2024-02-23T10:59:52;98959.03;;;16.77;45.02
22653;BME280;11493;43.344;26.226;2024-02-23T11:02:20;98969.88;;;17.01;44.70
22653;BME280;11493;43.344;26.226;2024-02-23T11:04:50;98921.81;;;16.81;44.05
22653;BME280;11493;43.344;26.226;2024-02-23T11:07:22;98949.91;;;16.95;43.43
22653;BME280;11493;43.344;26.226;2024-02-23T11:09:52;98963.31;;;17.13;43.11
22653;BME280;11493;43.344;26.226;2024-02-23T11:12:24;98928.84;;;16.94;42.87
22653;BME280;11493;43.344;26.226;2024-02-23T11:14:51;98932.50;;;16.98;43.44
22653;BME280;11493;43.344;26.226;2024-02-23T11:17:25;98961.56;;;17.24;43.22
22653;BME280;11493;43.344;26.226;2024-02-23T11:19:54;98917.94;;;17.05;43.40
22653;BME280;11493;43.344;26.226;2024-02-23T11:22:32;98939.75;;;17.26;43.55
22653;BME280;11493;43.344;26.226;2024-02-23T11:25:07;98951.13;;;17.40;43.29
22653;BME280;11493;43.344;26.226;2024-02-23T11:27:38;98948.34;;;17.40;43.04
22653;BME280;11493;43.344;26.226;2024-02-23T11:30:08;98912.19;;;17.17;41.84
22653;BME280;11493;43.344;26.226;2024-02-23T11:32:43;98946.94;;;17.50;41.74
22653;BME280;11493;43.344;26.226;2024-02-23T11:35:12;98910.47;;;17.32;41.74
22653;BME280;11493;43.344;26.226;2024-02-23T11:37:47;98910.16;;;17.37;41.37
22653;BME280;11493;43.344;26.226;2024-02-23T11:40:17;98936.88;;;17.64;41.45
22653;BME280;11493;43.344;26.226;2024-02-23T11:42:47;98935.47;;;17.74;40.55
22653;BME280;11493;43.344;26.226;2024-02-23T11:45:14;98934.25;;;17.71;41.45
22653;BME280;11493;43.344;26.226;2024-02-23T11:47:42;98905.66;;;17.52;40.66
22653;BME280;11493;43.344;26.226;2024-02-23T11:50:10;98932.22;;;17.68;40.05
22653;BME280;11493;43.344;26.226;2024-02-23T11:52:38;98930.06;;;17.85;40.12
22653;BME280;11493;43.344;26.226;2024-02-23T11:55:08;98929.22;;;17.81;39.86
22653;BME280;11493;43.344;26.226;2024-02-23T11:57:35;98930.84;;;17.82;40.55
22653;BME280;11493;43.344;26.226;2024-02-23T12:00:14;98935.16;;;17.79;40.96
22653;BME280;11493;43.344;26.226;2024-02-23T12:02:44;98927.50;;;17.72;40.91
22653;BME280;11493;43.344;26.226;2024-02-23T12:05:13;98926.34;;;17.73;40.14
22653;BME280;11493;43.344;26.226;2024-02-23T12:07:44;98930.94;;;17.89;39.36
22653;BME280;11493;43.344;26.226;2024-02-23T12:10:14;98914.88;;;17.79;39.93
22653;BME280;11493;43.344;26.226;2024-02-23T12:12:41;98832.91;;;17.27;40.53
22653;BME280;11493;43.344;26.226;2024-02-23T12:15:12;98925.69;;;17.84;39.67
22653;BME280;11493;43.344;26.226;2024-02-23T12:17:49;98910.28;;;17.90;38.92
22653;BME280;11493;43.344;26.226;2024-02-23T12:20:17;98901.81;;;17.83;37.63
22653;BME280;11493;43.344;26.226;2024-02-23T12:22:44;98900.38;;;17.92;37.50
22653;BME280;11493;43.344;26.226;2024-02-23T12:25:12;98914.66;;;18.17;37.39
22653;BME280;11493;43.344;26.226;2024-02-23T12:27:41;98920.81;;;18.03;35.92
22653;BME280;11493;43.344;26.226;2024-02-23T12:30:18;98912.25;;;17.89;33.80
22653;BME280;11493;43.344;26.226;2024-02-23T12:32:47;98886.19;;;17.75;33.65
22653;BME280;11493;43.344;26.226;2024-02-23T12:35:15;98886.94;;;17.71;33.93
22653;BME280;11493;43.344;26.226;2024-02-23T12:37:43;98905.78;;;17.82;33.13
22653;BME280;11493;43.344;26.226;2024-02-23T12:40:12;98892.19;;;17.77;31.96
22653;BME280;11493;43.344;26.226;2024-02-23T12:42:40;98912.09;;;18.05;32.05
22653;BME280;11493;43.344;26.226;2024-02-23T12:45:10;98897.53;;;17.89;31.39
22653;BME280;11493;43.344;26.226;2024-02-23T12:47:38;98908.63;;;18.12;30.27
22653;BME280;11493;43.344;26.226;2024-02-23T12:50:06;98913.97;;;18.24;31.06
22653;BME280;11493;43.344;26.226;2024-02-23T12:52:34;98909.09;;;18.17;31.20
22653;BME280;11493;43.344;26.226;2024-02-23T12:55:05;98893.84;;;18.08;32.10
22653;BME280;11493;43.344;26.226;2024-02-23T12:57:32;98909.09;;;18.17;31.47